sensor_id;sensor_type;location;lat;lon;timestamp;temperature;humidity
66144;SHT31;52947;50.842;6.084;2022-12-07T00:01:05;4.54;93.47
66144;SHT31;52947;50.842;6.084;2022-12-07T00:03:34;4.54;93.16
66144;SHT31;52947;50.842;6.084;2022-12-07T00:06:04;4.54;93.00
66144;SHT31;52947;50.842;6.084;2022-12-07T00:08:33;4.48;93.60
66144;SHT31;52947;50.842;6.084;2022-12-07T00:11:02;4.51;93.22
66144;SHT31;52947;50.842;6.084;2022-12-07T00:13:31;4.49;93.59
66144;SHT31;52947;50.842;6.084;2022-12-07T00:16:01;4.59;93.23
66144;SHT31;52947;50.842;6.084;2022-12-07T00:18:29;4.55;93.17
66144;SHT31;52947;50.842;6.084;2022-12-07T00:21:00;4.55;93.24
66144;SHT31;52947;50.842;6.084;2022-12-07T00:23:29;4.52;93.33
66144;SHT31;52947;50.842;6.084;2022-12-07T00:26:03;4.57;93.18
66144;SHT31;52947;50.842;6.084;2022-12-07T00:28:31;4.55;92.99
66144;SHT31;52947;50.842;6.084;2022-12-07T00:31:03;4.57;93.19
66144;SHT31;52947;50.842;6.084;2022-12-07T00:33:32;4.59;93.37
66144;SHT31;52947;50.842;6.084;2022-12-07T00:36:00;4.64;93.14
66144;SHT31;52947;50.842;6.084;2022-12-07T00:38:30;4.58;92.81
66144;SHT31;52947;50.842;6.084;2022-12-07T00:41:00;4.54;93.47
66144;SHT31;52947;50.842;6.084;2022-12-07T00:43:28;4.57;93.44
66144;SHT31;52947;50.842;6.084;2022-12-07T00:45:56;4.61;93.31
66144;SHT31;52947;50.842;6.084;2022-12-07T00:48:26;4.59;93.13
66144;SHT31;52947;50.842;6.084;2022-12-07T00:50:54;4.57;93.02
66144;SHT31;52947;50.842;6.084;2022-12-07T00:53:22;4.59;93.02
66144;SHT31;52947;50.842;6.084;2022-12-07T00:55:50;4.59;92.98
66144;SHT31;52947;50.842;6.084;2022-12-07T00:58:19;4.55;92.85
66144;SHT31;52947;50.842;6.084;2022-12-07T01:00:46;4.54;93.22
66144;SHT31;52947;50.842;6.084;2022-12-07T01:03:15;4.48;92.96
66144;SHT31;52947;50.842;6.084;2022-12-07T01:05:51;4.51;93.07
66144;SHT31;52947;50.842;6.084;2022-12-07T01:08:19;4.51;92.86
66144;SHT31;52947;50.842;6.084;2022-12-07T01:10:48;4.49;92.83
66144;SHT31;52947;50.842;6.084;2022-12-07T01:13:16;4.54;93.30
66144;SHT31;52947;50.842;6.084;2022-12-07T01:15:44;4.49;93.34
66144;SHT31;52947;50.842;6.084;2022-12-07T01:18:12;4.51;93.07
66144;SHT31;52947;50.842;6.084;2022-12-07T01:20:40;4.48;93.05
66144;SHT31;52947;50.842;6.084;2022-12-07T01:23:09;4.58;92.75
66144;SHT31;52947;50.842;6.084;2022-12-07T01:25:37;4.57;92.83
66144;SHT31;52947;50.842;6.084;2022-12-07T01:28:04;4.66;92.71
66144;SHT31;52947;50.842;6.084;2022-12-07T01:30:32;4.64;92.56
66144;SHT31;52947;50.842;6.084;2022-12-07T01:33:00;4.62;93.04
66144;SHT31;52947;50.842;6.084;2022-12-07T01:35:28;4.62;92.92
66144;SHT31;52947;50.842;6.084;2022-12-07T01:37:56;4.65;93.01
66144;SHT31;52947;50.842;6.084;2022-12-07T01:40:25;4.58;92.76
66144;SHT31;52947;50.842;6.084;2022-12-07T01:42:53;4.57;93.37
66144;SHT31;52947;50.842;6.084;2022-12-07T01:45:42;4.48;93.42
66144;SHT31;52947;50.842;6.084;2022-12-07T01:48:11;4.51;93.59
66144;SHT31;52947;50.842;6.084;2022-12-07T01:50:40;4.57;93.51
66144;SHT31;52947;50.842;6.084;2022-12-07T01:53:10;4.57;93.81
66144;SHT31;52947;50.842;6.084;2022-12-07T01:55:42;4.51;93.53
66144;SHT31;52947;50.842;6.084;2022-12-07T01:58:11;4.48;93.72
66144;SHT31;52947;50.842;6.084;2022-12-07T02:00:40;4.52;93.73
66144;SHT31;52947;50.842;6.084;2022-12-07T02:03:11;4.51;93.40
66144;SHT31;52947;50.842;6.084;2022-12-07T02:05:43;4.48;93.88
66144;SHT31;52947;50.842;6.084;2022-12-07T02:08:12;4.47;93.87
66144;SHT31;52947;50.842;6.084;2022-12-07T02:10:42;4.44;93.86
66144;SHT31;52947;50.842;6.084;2022-12-07T02:13:10;4.49;93.84
66144;SHT31;52947;50.842;6.084;2022-12-07T02:15:47;4.47;93.75
66144;SHT31;52947;50.842;6.084;2022-12-07T02:18:20;4.48;93.93
66144;SHT31;52947;50.842;6.084;2022-12-07T02:20:55;4.54;93.78
66144;SHT31;52947;50.842;6.084;2022-12-07T02:23:53;4.55;93.46
66144;SHT31;52947;50.842;6.084;2022-12-07T02:30:54;4.49;93.69
66144;SHT31;52947;50.842;6.084;2022-12-07T02:33:27;4.54;93.67
66144;SHT31;52947;50.842;6.084;2022-12-07T02:36:00;4.49;93.43
66144;SHT31;52947;50.842;6.084;2022-12-07T02:38:35;4.57;93.26
66144;SHT31;52947;50.842;6.084;2022-12-07T02:41:08;4.59;93.23
66144;SHT31;52947;50.842;6.084;2022-12-07T02:43:39;4.57;93.62
66144;SHT31;52947;50.842;6.084;2022-12-07T02:46:13;4.52;93.53
66144;SHT31;52947;50.842;6.084;2022-12-07T02:48:43;4.49;93.47
66144;SHT31;52947;50.842;6.084;2022-12-07T02:51:11;4.48;93.69
66144;SHT31;52947;50.842;6.084;2022-12-07T02:58:14;4.51;93.30
66144;SHT31;52947;50.842;6.084;2022-12-07T03:00:50;4.49;93.53
66144;SHT31;52947;50.842;6.084;2022-12-07T03:03:22;4.49;93.43
66144;SHT31;52947;50.842;6.084;2022-12-07T03:06:06;4.52;93.58
66144;SHT31;52947;50.842;6.084;2022-12-07T03:08:47;4.45;93.94
66144;SHT31;52947;50.842;6.084;2022-12-07T03:11:21;4.42;93.77
66144;SHT31;52947;50.842;6.084;2022-12-07T03:13:58;4.49;93.73
66144;SHT31;52947;50.842;6.084;2022-12-07T03:16:29;4.54;93.44
66144;SHT31;52947;50.842;6.084;2022-12-07T03:19:02;4.58;93.34
66144;SHT31;52947;50.842;6.084;2022-12-07T03:21:33;4.54;93.37
66144;SHT31;52947;50.842;6.084;2022-12-07T03:24:06;4.52;93.46
66144;SHT31;52947;50.842;6.084;2022-12-07T03:26:38;4.52;93.15
66144;SHT31;52947;50.842;6.084;2022-12-07T03:29:24;4.51;93.32
66144;SHT31;52947;50.842;6.084;2022-12-07T03:31:55;4.52;93.22
66144;SHT31;52947;50.842;6.084;2022-12-07T03:34:33;4.52;93.01
66144;SHT31;52947;50.842;6.084;2022-12-07T03:37:05;4.49;93.24
66144;SHT31;52947;50.842;6.084;2022-12-07T03:39:38;4.51;93.50
66144;SHT31;52947;50.842;6.084;2022-12-07T03:42:08;4.51;93.25
66144;SHT31;52947;50.842;6.084;2022-12-07T03:44:38;4.48;93.31
66144;SHT31;52947;50.842;6.084;2022-12-07T03:47:11;4.45;93.56
66144;SHT31;52947;50.842;6.084;2022-12-07T03:49:44;4.42;93.62
66144;SHT31;52947;50.842;6.084;2022-12-07T03:52:20;4.47;93.71
66144;SHT31;52947;50.842;6.084;2022-12-07T03:54:55;4.48;93.73
66144;SHT31;52947;50.842;6.084;2022-12-07T03:57:25;4.47;93.67
66144;SHT31;52947;50.842;6.084;2022-12-07T03:59:53;4.48;93.97
66144;SHT31;52947;50.842;6.084;2022-12-07T04:02:22;4.42;93.47
66144;SHT31;52947;50.842;6.084;2022-12-07T04:04:52;4.45;93.67
66144;SHT31;52947;50.842;6.084;2022-12-07T04:07:20;4.47;93.25
66144;SHT31;52947;50.842;6.084;2022-12-07T04:09:48;4.48;93.50
66144;SHT31;52947;50.842;6.084;2022-12-07T04:12:16;4.45;93.54
66144;SHT31;52947;50.842;6.084;2022-12-07T04:14:43;4.37;93.75
66144;SHT31;52947;50.842;6.084;2022-12-07T04:17:11;4.37;94.10
66144;SHT31;52947;50.842;6.084;2022-12-07T04:19:39;4.40;93.92
66144;SHT31;52947;50.842;6.084;2022-12-07T04:22:08;4.44;93.67
66144;SHT31;52947;50.842;6.084;2022-12-07T04:24:36;4.40;93.95
66144;SHT31;52947;50.842;6.084;2022-12-07T04:27:04;4.42;94.48
66144;SHT31;52947;50.842;6.084;2022-12-07T04:29:32;4.64;94.86
66144;SHT31;52947;50.842;6.084;2022-12-07T04:31:59;4.65;94.50
66144;SHT31;52947;50.842;6.084;2022-12-07T04:34:27;4.72;94.18
66144;SHT31;52947;50.842;6.084;2022-12-07T04:36:55;4.73;94.21
66144;SHT31;52947;50.842;6.084;2022-12-07T04:39:25;4.86;94.63
66144;SHT31;52947;50.842;6.084;2022-12-07T04:41:54;4.89;93.35
66144;SHT31;52947;50.842;6.084;2022-12-07T04:44:24;4.92;94.09
66144;SHT31;52947;50.842;6.084;2022-12-07T04:46:52;4.92;93.58
66144;SHT31;52947;50.842;6.084;2022-12-07T04:49:20;4.95;93.57
66144;SHT31;52947;50.842;6.084;2022-12-07T04:51:48;4.93;93.71
66144;SHT31;52947;50.842;6.084;2022-12-07T04:54:17;4.85;92.94
66144;SHT31;52947;50.842;6.084;2022-12-07T04:56:47;4.78;92.88
66144;SHT31;52947;50.842;6.084;2022-12-07T04:59:16;4.83;93.47
66144;SHT31;52947;50.842;6.084;2022-12-07T05:01:44;4.85;93.04
66144;SHT31;52947;50.842;6.084;2022-12-07T05:04:12;4.88;93.39
66144;SHT31;52947;50.842;6.084;2022-12-07T05:06:39;4.82;92.83
66144;SHT31;52947;50.842;6.084;2022-12-07T05:09:07;4.92;93.48
66144;SHT31;52947;50.842;6.084;2022-12-07T05:11:35;4.90;93.39
66144;SHT31;52947;50.842;6.084;2022-12-07T05:14:10;4.90;93.15
66144;SHT31;52947;50.842;6.084;2022-12-07T05:16:39;4.86;93.26
66144;SHT31;52947;50.842;6.084;2022-12-07T05:19:08;4.80;93.27
66144;SHT31;52947;50.842;6.084;2022-12-07T05:21:36;4.76;92.37
66144;SHT31;52947;50.842;6.084;2022-12-07T05:24:04;4.75;93.41
66144;SHT31;52947;50.842;6.084;2022-12-07T05:26:32;4.69;93.42
66144;SHT31;52947;50.842;6.084;2022-12-07T05:29:00;4.73;93.24
66144;SHT31;52947;50.842;6.084;2022-12-07T05:31:29;4.73;92.77
66144;SHT31;52947;50.842;6.084;2022-12-07T05:33:57;4.66;92.52
66144;SHT31;52947;50.842;6.084;2022-12-07T05:36:25;4.65;93.08
66144;SHT31;52947;50.842;6.084;2022-12-07T05:38:55;4.64;92.97
66144;SHT31;52947;50.842;6.084;2022-12-07T05:41:23;4.62;93.38
66144;SHT31;52947;50.842;6.084;2022-12-07T05:44:08;4.65;93.18
66144;SHT31;52947;50.842;6.084;2022-12-07T05:46:37;4.57;92.64
66144;SHT31;52947;50.842;6.084;2022-12-07T05:49:05;4.52;92.87
66144;SHT31;52947;50.842;6.084;2022-12-07T05:51:33;4.42;93.09
66144;SHT31;52947;50.842;6.084;2022-12-07T05:54:01;4.37;93.42
66144;SHT31;52947;50.842;6.084;2022-12-07T05:56:29;4.31;93.52
66144;SHT31;52947;50.842;6.084;2022-12-07T05:58:56;4.42;94.05
66144;SHT31;52947;50.842;6.084;2022-12-07T06:01:43;4.44;93.81
66144;SHT31;52947;50.842;6.084;2022-12-07T06:04:11;4.47;93.53
66144;SHT31;52947;50.842;6.084;2022-12-07T06:06:39;4.54;93.19
66144;SHT31;52947;50.842;6.084;2022-12-07T06:09:07;4.57;93.24
66144;SHT31;52947;50.842;6.084;2022-12-07T06:11:35;4.65;93.29
66144;SHT31;52947;50.842;6.084;2022-12-07T06:14:20;4.65;92.55
66144;SHT31;52947;50.842;6.084;2022-12-07T06:16:49;4.65;92.57
66144;SHT31;52947;50.842;6.084;2022-12-07T06:19:17;4.55;92.45
66144;SHT31;52947;50.842;6.084;2022-12-07T06:21:45;4.52;92.78
66144;SHT31;52947;50.842;6.084;2022-12-07T06:24:14;4.61;93.78
66144;SHT31;52947;50.842;6.084;2022-12-07T06:26:42;4.64;92.48
66144;SHT31;52947;50.842;6.084;2022-12-07T06:29:11;4.65;92.73
66144;SHT31;52947;50.842;6.084;2022-12-07T06:31:39;4.66;92.98
66144;SHT31;52947;50.842;6.084;2022-12-07T06:34:11;4.66;92.86
66144;SHT31;52947;50.842;6.084;2022-12-07T06:36:39;4.69;92.92
66144;SHT31;52947;50.842;6.084;2022-12-07T06:39:08;4.78;92.88
66144;SHT31;52947;50.842;6.084;2022-12-07T06:41:36;4.62;92.32
66144;SHT31;52947;50.842;6.084;2022-12-07T06:44:04;4.71;92.48
66144;SHT31;52947;50.842;6.084;2022-12-07T06:46:33;4.64;92.29
66144;SHT31;52947;50.842;6.084;2022-12-07T06:49:02;4.51;92.72
66144;SHT31;52947;50.842;6.084;2022-12-07T06:51:32;4.35;93.28
66144;SHT31;52947;50.842;6.084;2022-12-07T06:54:02;4.31;93.70
66144;SHT31;52947;50.842;6.084;2022-12-07T06:56:29;4.27;93.74
66144;SHT31;52947;50.842;6.084;2022-12-07T06:58:57;4.21;94.01
66144;SHT31;52947;50.842;6.084;2022-12-07T07:01:25;4.14;93.95
66144;SHT31;52947;50.842;6.084;2022-12-07T07:03:53;4.16;93.95
66144;SHT31;52947;50.842;6.084;2022-12-07T07:06:21;4.16;94.48
66144;SHT31;52947;50.842;6.084;2022-12-07T07:08:50;4.14;94.40
66144;SHT31;52947;50.842;6.084;2022-12-07T07:11:18;4.18;94.60
66144;SHT31;52947;50.842;6.084;2022-12-07T07:13:46;4.16;94.41
66144;SHT31;52947;50.842;6.084;2022-12-07T07:16:14;4.21;94.42
66144;SHT31;52947;50.842;6.084;2022-12-07T07:18:42;4.28;94.71
66144;SHT31;52947;50.842;6.084;2022-12-07T07:21:10;4.42;94.63
66144;SHT31;52947;50.842;6.084;2022-12-07T07:23:38;4.54;93.76
66144;SHT31;52947;50.842;6.084;2022-12-07T07:26:07;4.61;93.23
66144;SHT31;52947;50.842;6.084;2022-12-07T07:28:34;4.61;93.75
66144;SHT31;52947;50.842;6.084;2022-12-07T07:31:02;4.68;93.08
66144;SHT31;52947;50.842;6.084;2022-12-07T07:33:30;4.69;93.02
66144;SHT31;52947;50.842;6.084;2022-12-07T07:35:58;4.62;92.93
66144;SHT31;52947;50.842;6.084;2022-12-07T07:38:26;4.72;93.32
66144;SHT31;52947;50.842;6.084;2022-12-07T07:40:54;4.71;92.76
66144;SHT31;52947;50.842;6.084;2022-12-07T07:43:23;4.79;93.91
66144;SHT31;52947;50.842;6.084;2022-12-07T07:45:51;4.79;92.98
66144;SHT31;52947;50.842;6.084;2022-12-07T07:48:19;4.82;93.08
66144;SHT31;52947;50.842;6.084;2022-12-07T07:50:49;4.80;92.69
66144;SHT31;52947;50.842;6.084;2022-12-07T07:53:16;4.78;92.85
66144;SHT31;52947;50.842;6.084;2022-12-07T07:55:50;4.66;92.42
66144;SHT31;52947;50.842;6.084;2022-12-07T07:58:18;4.65;92.38
66144;SHT31;52947;50.842;6.084;2022-12-07T08:00:47;4.62;92.57
66144;SHT31;52947;50.842;6.084;2022-12-07T08:03:15;4.51;92.43
66144;SHT31;52947;50.842;6.084;2022-12-07T08:05:43;4.44;91.94
66144;SHT31;52947;50.842;6.084;2022-12-07T08:08:10;4.55;91.97
66144;SHT31;52947;50.842;6.084;2022-12-07T08:10:38;4.51;92.60
66144;SHT31;52947;50.842;6.084;2022-12-07T08:13:06;4.45;92.04
66144;SHT31;52947;50.842;6.084;2022-12-07T08:15:42;4.35;91.88
66144;SHT31;52947;50.842;6.084;2022-12-07T08:18:12;4.33;92.47
66144;SHT31;52947;50.842;6.084;2022-12-07T08:20:41;4.35;92.66
66144;SHT31;52947;50.842;6.084;2022-12-07T08:23:10;4.34;92.19
66144;SHT31;52947;50.842;6.084;2022-12-07T08:25:38;4.58;91.59
66144;SHT31;52947;50.842;6.084;2022-12-07T08:28:06;4.52;90.94
66144;SHT31;52947;50.842;6.084;2022-12-07T08:30:34;4.35;91.13
66144;SHT31;52947;50.842;6.084;2022-12-07T08:33:02;4.37;91.94
66144;SHT31;52947;50.842;6.084;2022-12-07T08:35:33;4.47;91.36
66144;SHT31;52947;50.842;6.084;2022-12-07T08:38:02;4.76;89.74
66144;SHT31;52947;50.842;6.084;2022-12-07T08:40:30;4.62;90.31
66144;SHT31;52947;50.842;6.084;2022-12-07T08:42:58;4.68;91.48
66144;SHT31;52947;50.842;6.084;2022-12-07T08:45:26;4.61;91.05
66144;SHT31;52947;50.842;6.084;2022-12-07T08:47:56;5.16;90.00
66144;SHT31;52947;50.842;6.084;2022-12-07T08:50:25;5.39;90.28
66144;SHT31;52947;50.842;6.084;2022-12-07T08:52:57;5.51;89.95
66144;SHT31;52947;50.842;6.084;2022-12-07T08:55:26;5.65;89.71
66144;SHT31;52947;50.842;6.084;2022-12-07T08:57:57;5.65;89.39
66144;SHT31;52947;50.842;6.084;2022-12-07T09:00:25;5.54;89.41
66144;SHT31;52947;50.842;6.084;2022-12-07T09:02:54;5.47;89.66
66144;SHT31;52947;50.842;6.084;2022-12-07T09:05:22;5.61;89.44
66144;SHT31;52947;50.842;6.084;2022-12-07T09:07:51;5.60;89.82
66144;SHT31;52947;50.842;6.084;2022-12-07T09:10:23;5.54;88.93
66144;SHT31;52947;50.842;6.084;2022-12-07T09:12:51;5.46;89.27
66144;SHT31;52947;50.842;6.084;2022-12-07T09:15:18;5.40;89.76
66144;SHT31;52947;50.842;6.084;2022-12-07T09:17:46;5.58;89.93
66144;SHT31;52947;50.842;6.084;2022-12-07T09:20:14;5.54;88.18
66144;SHT31;52947;50.842;6.084;2022-12-07T09:22:42;5.74;90.86
66144;SHT31;52947;50.842;6.084;2022-12-07T09:25:10;5.77;88.72
66144;SHT31;52947;50.842;6.084;2022-12-07T09:27:39;5.81;90.34
66144;SHT31;52947;50.842;6.084;2022-12-07T09:30:07;5.95;89.83
66144;SHT31;52947;50.842;6.084;2022-12-07T09:32:35;5.99;88.58
66144;SHT31;52947;50.842;6.084;2022-12-07T09:35:03;5.99;88.63
66144;SHT31;52947;50.842;6.084;2022-12-07T09:37:32;5.82;88.08
66144;SHT31;52947;50.842;6.084;2022-12-07T09:40:04;5.81;87.28
66144;SHT31;52947;50.842;6.084;2022-12-07T09:42:34;5.70;88.91
66144;SHT31;52947;50.842;6.084;2022-12-07T09:45:06;5.54;88.65
66144;SHT31;52947;50.842;6.084;2022-12-07T09:47:35;5.24;88.72
66144;SHT31;52947;50.842;6.084;2022-12-07T09:50:06;5.16;90.09
66144;SHT31;52947;50.842;6.084;2022-12-07T09:52:35;5.16;90.64
66144;SHT31;52947;50.842;6.084;2022-12-07T09:55:10;5.27;90.32
66144;SHT31;52947;50.842;6.084;2022-12-07T09:57:38;5.36;90.30
66144;SHT31;52947;50.842;6.084;2022-12-07T10:00:12;5.37;89.59
66144;SHT31;52947;50.842;6.084;2022-12-07T10:02:42;5.40;90.36
66144;SHT31;52947;50.842;6.084;2022-12-07T10:05:14;5.20;88.79
66144;SHT31;52947;50.842;6.084;2022-12-07T10:07:49;5.22;89.80
66144;SHT31;52947;50.842;6.084;2022-12-07T10:10:22;5.40;89.69
66144;SHT31;52947;50.842;6.084;2022-12-07T10:12:57;5.72;88.85
66144;SHT31;52947;50.842;6.084;2022-12-07T10:15:48;5.71;88.53
66144;SHT31;52947;50.842;6.084;2022-12-07T10:18:28;5.85;88.96
66144;SHT31;52947;50.842;6.084;2022-12-07T10:24:00;6.16;87.49
66144;SHT31;52947;50.842;6.084;2022-12-07T10:26:33;6.22;87.38
66144;SHT31;52947;50.842;6.084;2022-12-07T10:29:12;6.21;87.66
66144;SHT31;52947;50.842;6.084;2022-12-07T10:31:43;5.78;87.66
66144;SHT31;52947;50.842;6.084;2022-12-07T10:34:21;5.54;88.46
66144;SHT31;52947;50.842;6.084;2022-12-07T10:36:51;5.41;89.29
66144;SHT31;52947;50.842;6.084;2022-12-07T10:39:20;5.43;88.49
66144;SHT31;52947;50.842;6.084;2022-12-07T10:41:55;6.50;86.78
66144;SHT31;52947;50.842;6.084;2022-12-07T10:44:25;6.47;85.52
66144;SHT31;52947;50.842;6.084;2022-12-07T10:47:10;6.44;84.66
66144;SHT31;52947;50.842;6.084;2022-12-07T10:53:19;6.22;86.38
66144;SHT31;52947;50.842;6.084;2022-12-07T10:56:00;6.23;86.64
66144;SHT31;52947;50.842;6.084;2022-12-07T10:58:40;6.90;84.74
66144;SHT31;52947;50.842;6.084;2022-12-07T11:01:18;7.77;82.35
66144;SHT31;52947;50.842;6.084;2022-12-07T11:04:13;9.23;79.63
66144;SHT31;52947;50.842;6.084;2022-12-07T11:06:51;9.60;77.36
66144;SHT31;52947;50.842;6.084;2022-12-07T11:09:39;8.92;78.84
66144;SHT31;52947;50.842;6.084;2022-12-07T11:12:40;8.06;80.04
66144;SHT31;52947;50.842;6.084;2022-12-07T11:15:14;7.59;81.72
66144;SHT31;52947;50.842;6.084;2022-12-07T11:17:49;7.09;82.33
66144;SHT31;52947;50.842;6.084;2022-12-07T11:20:32;6.79;84.53
66144;SHT31;52947;50.842;6.084;2022-12-07T11:23:10;6.49;84.70
66144;SHT31;52947;50.842;6.084;2022-12-07T11:25:49;6.71;84.51
66144;SHT31;52947;50.842;6.084;2022-12-07T11:28:29;7.12;83.01
66144;SHT31;52947;50.842;6.084;2022-12-07T11:31:07;7.18;83.40
66144;SHT31;52947;50.842;6.084;2022-12-07T11:33:41;7.09;83.88
66144;SHT31;52947;50.842;6.084;2022-12-07T11:36:29;7.16;83.12
66144;SHT31;52947;50.842;6.084;2022-12-07T11:39:01;8.35;79.53
66144;SHT31;52947;50.842;6.084;2022-12-07T11:41:32;9.38;77.55
66144;SHT31;52947;50.842;6.084;2022-12-07T11:44:08;9.97;76.65
66144;SHT31;52947;50.842;6.084;2022-12-07T11:46:48;10.43;75.69
66144;SHT31;52947;50.842;6.084;2022-12-07T11:49:21;10.16;75.22
66144;SHT31;52947;50.842;6.084;2022-12-07T11:51:57;10.64;73.33
66144;SHT31;52947;50.842;6.084;2022-12-07T11:54:29;11.78;72.92
66144;SHT31;52947;50.842;6.084;2022-12-07T11:57:03;11.79;70.96
66144;SHT31;52947;50.842;6.084;2022-12-07T11:59:36;10.93;73.37
66144;SHT31;52947;50.842;6.084;2022-12-07T12:02:13;9.84;75.09
66144;SHT31;52947;50.842;6.084;2022-12-07T12:04:49;8.97;76.22
66144;SHT31;52947;50.842;6.084;2022-12-07T12:07:22;8.72;78.46
66144;SHT31;52947;50.842;6.084;2022-12-07T12:10:18;9.06;77.66
66144;SHT31;52947;50.842;6.084;2022-12-07T12:13:01;9.20;77.47
66144;SHT31;52947;50.842;6.084;2022-12-07T12:16:04;9.34;76.57
66144;SHT31;52947;50.842;6.084;2022-12-07T12:18:43;9.09;76.08
66144;SHT31;52947;50.842;6.084;2022-12-07T12:21:15;9.52;74.89
66144;SHT31;52947;50.842;6.084;2022-12-07T12:23:50;9.70;75.02
66144;SHT31;52947;50.842;6.084;2022-12-07T12:26:20;10.32;74.72
66144;SHT31;52947;50.842;6.084;2022-12-07T12:28:52;11.00;74.22
66144;SHT31;52947;50.842;6.084;2022-12-07T12:31:37;11.21;72.42
66144;SHT31;52947;50.842;6.084;2022-12-07T12:34:31;11.27;72.38
66144;SHT31;52947;50.842;6.084;2022-12-07T12:36:59;10.50;74.05
66144;SHT31;52947;50.842;6.084;2022-12-07T12:39:29;9.92;74.14
66144;SHT31;52947;50.842;6.084;2022-12-07T12:41:57;10.16;74.90
66144;SHT31;52947;50.842;6.084;2022-12-07T12:45:11;9.95;75.03
66144;SHT31;52947;50.842;6.084;2022-12-07T12:47:54;8.71;76.35
66144;SHT31;52947;50.842;6.084;2022-12-07T12:50:24;8.38;79.12
66144;SHT31;52947;50.842;6.084;2022-12-07T12:52:56;8.40;81.27
66144;SHT31;52947;50.842;6.084;2022-12-07T12:55:47;8.25;80.19
66144;SHT31;52947;50.842;6.084;2022-12-07T12:58:35;7.83;80.49
66144;SHT31;52947;50.842;6.084;2022-12-07T13:04:40;7.52;81.90
66144;SHT31;52947;50.842;6.084;2022-12-07T13:10:34;7.32;82.23
66144;SHT31;52947;50.842;6.084;2022-12-07T13:13:08;7.31;81.72
66144;SHT31;52947;50.842;6.084;2022-12-07T13:15:53;7.31;83.00
66144;SHT31;52947;50.842;6.084;2022-12-07T13:18:23;7.02;81.99
66144;SHT31;52947;50.842;6.084;2022-12-07T13:20:54;7.09;83.12
66144;SHT31;52947;50.842;6.084;2022-12-07T13:23:29;6.95;82.94
66144;SHT31;52947;50.842;6.084;2022-12-07T13:26:16;7.02;83.25
66144;SHT31;52947;50.842;6.084;2022-12-07T13:28:46;7.19;82.98
66144;SHT31;52947;50.842;6.084;2022-12-07T13:31:22;7.18;83.01
66144;SHT31;52947;50.842;6.084;2022-12-07T13:33:51;7.07;82.15
66144;SHT31;52947;50.842;6.084;2022-12-07T13:36:22;7.04;83.65
66144;SHT31;52947;50.842;6.084;2022-12-07T13:38:53;7.09;84.77
66144;SHT31;52947;50.842;6.084;2022-12-07T13:41:23;7.09;83.17
66144;SHT31;52947;50.842;6.084;2022-12-07T13:43:59;7.01;82.76
66144;SHT31;52947;50.842;6.084;2022-12-07T13:46:36;6.90;83.60
66144;SHT31;52947;50.842;6.084;2022-12-07T13:49:17;6.84;83.68
66144;SHT31;52947;50.842;6.084;2022-12-07T13:51:45;6.84;84.37
66144;SHT31;52947;50.842;6.084;2022-12-07T13:54:14;6.81;84.19
66144;SHT31;52947;50.842;6.084;2022-12-07T13:56:43;6.83;84.89
66144;SHT31;52947;50.842;6.084;2022-12-07T13:59:17;6.70;83.68
66144;SHT31;52947;50.842;6.084;2022-12-07T14:01:47;6.70;85.29
66144;SHT31;52947;50.842;6.084;2022-12-07T14:04:27;6.80;85.33
66144;SHT31;52947;50.842;6.084;2022-12-07T14:06:57;6.77;85.55
66144;SHT31;52947;50.842;6.084;2022-12-07T14:09:26;6.73;86.31
66144;SHT31;52947;50.842;6.084;2022-12-07T14:11:57;6.88;85.85
66144;SHT31;52947;50.842;6.084;2022-12-07T14:14:26;6.95;84.50
66144;SHT31;52947;50.842;6.084;2022-12-07T14:17:11;6.63;83.87
66144;SHT31;52947;50.842;6.084;2022-12-07T14:19:46;6.63;85.03
66144;SHT31;52947;50.842;6.084;2022-12-07T14:22:29;6.80;86.43
66144;SHT31;52947;50.842;6.084;2022-12-07T14:27:51;6.73;85.35
66144;SHT31;52947;50.842;6.084;2022-12-07T14:30:23;6.77;86.10
66144;SHT31;52947;50.842;6.084;2022-12-07T14:32:54;6.76;86.50
66144;SHT31;52947;50.842;6.084;2022-12-07T14:35:22;6.71;85.28
66144;SHT31;52947;50.842;6.084;2022-12-07T14:37:50;6.62;85.74
66144;SHT31;52947;50.842;6.084;2022-12-07T14:40:20;6.52;84.98
66144;SHT31;52947;50.842;6.084;2022-12-07T14:42:51;6.50;86.44
66144;SHT31;52947;50.842;6.084;2022-12-07T14:45:21;6.66;85.83
66144;SHT31;52947;50.842;6.084;2022-12-07T14:47:49;6.63;86.87
66144;SHT31;52947;50.842;6.084;2022-12-07T14:50:42;6.62;85.95
66144;SHT31;52947;50.842;6.084;2022-12-07T14:53:35;6.56;85.62
66144;SHT31;52947;50.842;6.084;2022-12-07T14:56:03;6.54;86.87
66144;SHT31;52947;50.842;6.084;2022-12-07T14:58:34;6.54;86.47
66144;SHT31;52947;50.842;6.084;2022-12-07T15:01:02;6.54;85.95
66144;SHT31;52947;50.842;6.084;2022-12-07T15:03:30;6.52;85.35
66144;SHT31;52947;50.842;6.084;2022-12-07T15:05:58;6.43;86.62
66144;SHT31;52947;50.842;6.084;2022-12-07T15:08:26;6.43;87.10
66144;SHT31;52947;50.842;6.084;2022-12-07T15:10:54;6.40;86.96
66144;SHT31;52947;50.842;6.084;2022-12-07T15:13:21;6.25;86.33
66144;SHT31;52947;50.842;6.084;2022-12-07T15:16:10;6.03;86.04
66144;SHT31;52947;50.842;6.084;2022-12-07T15:18:38;5.92;85.90
66144;SHT31;52947;50.842;6.084;2022-12-07T15:21:24;5.70;86.37
66144;SHT31;52947;50.842;6.084;2022-12-07T15:23:53;5.48;87.12
66144;SHT31;52947;50.842;6.084;2022-12-07T15:26:21;5.34;87.59
66144;SHT31;52947;50.842;6.084;2022-12-07T15:28:49;5.29;87.92
66144;SHT31;52947;50.842;6.084;2022-12-07T15:31:18;5.12;88.38
66144;SHT31;52947;50.842;6.084;2022-12-07T15:34:05;4.99;88.82
66144;SHT31;52947;50.842;6.084;2022-12-07T15:36:33;4.86;89.20
66144;SHT31;52947;50.842;6.084;2022-12-07T15:39:02;4.75;89.64
66144;SHT31;52947;50.842;6.084;2022-12-07T15:41:40;4.66;89.63
66144;SHT31;52947;50.842;6.084;2022-12-07T15:44:10;4.57;89.98
66144;SHT31;52947;50.842;6.084;2022-12-07T15:46:58;4.49;90.36
66144;SHT31;52947;50.842;6.084;2022-12-07T15:49:27;4.35;90.58
66144;SHT31;52947;50.842;6.084;2022-12-07T15:51:55;4.25;90.37
66144;SHT31;52947;50.842;6.084;2022-12-07T15:54:24;4.11;90.66
66144;SHT31;52947;50.842;6.084;2022-12-07T15:56:52;4.04;90.70
66144;SHT31;52947;50.842;6.084;2022-12-07T15:59:20;3.97;90.86
66144;SHT31;52947;50.842;6.084;2022-12-07T16:01:48;3.96;90.85
66144;SHT31;52947;50.842;6.084;2022-12-07T16:04:18;3.94;90.75
66144;SHT31;52947;50.842;6.084;2022-12-07T16:06:46;3.90;90.51
66144;SHT31;52947;50.842;6.084;2022-12-07T16:09:14;3.80;90.66
66144;SHT31;52947;50.842;6.084;2022-12-07T16:11:42;3.79;91.12
66144;SHT31;52947;50.842;6.084;2022-12-07T16:14:09;3.79;91.25
66144;SHT31;52947;50.842;6.084;2022-12-07T16:16:37;3.82;91.33
66144;SHT31;52947;50.842;6.084;2022-12-07T16:19:07;3.76;91.43
66144;SHT31;52947;50.842;6.084;2022-12-07T16:21:36;3.86;91.56
66144;SHT31;52947;50.842;6.084;2022-12-07T16:24:05;3.93;91.30
66144;SHT31;52947;50.842;6.084;2022-12-07T16:26:33;3.96;91.29
66144;SHT31;52947;50.842;6.084;2022-12-07T16:29:01;4.08;91.14
66144;SHT31;52947;50.842;6.084;2022-12-07T16:31:29;4.06;90.74
66144;SHT31;52947;50.842;6.084;2022-12-07T16:33:58;4.13;90.97
66144;SHT31;52947;50.842;6.084;2022-12-07T16:36:26;4.10;91.25
66144;SHT31;52947;50.842;6.084;2022-12-07T16:39:15;4.11;91.61